sensor_id;sensor_type;location;lat;lon;timestamp;P1;durP1;ratioP1;P2;durP2;ratioP2
74158;SDS011;62511;47.970;11.774;2022-12-07T00:02:11;10.60;;;4.82;;
74158;SDS011;62511;47.970;11.774;2022-12-07T00:04:37;13.80;;;4.95;;
74158;SDS011;62511;47.970;11.774;2022-12-07T00:07:03;15.10;;;5.47;;
74158;SDS011;62511;47.970;11.774;2022-12-07T00:09:29;15.35;;;5.40;;
74158;SDS011;62511;47.970;11.774;2022-12-07T00:11:55;15.77;;;5.82;;
74158;SDS011;62511;47.970;11.774;2022-12-07T00:14:21;14.13;;;5.53;;
74158;SDS011;62511;47.970;11.774;2022-12-07T00:16:48;13.38;;;5.40;;
74158;SDS011;62511;47.970;11.774;2022-12-07T00:19:14;13.05;;;5.15;;
74158;SDS011;62511;47.970;11.774;2022-12-07T00:21:40;10.32;;;4.85;;
74158;SDS011;62511;47.970;11.774;2022-12-07T00:24:07;13.63;;;5.35;;
74158;SDS011;62511;47.970;11.774;2022-12-07T00:26:34;10.82;;;4.90;;
74158;SDS011;62511;47.970;11.774;2022-12-07T00:29:02;14.90;;;5.38;;
74158;SDS011;62511;47.970;11.774;2022-12-07T00:31:29;12.27;;;5.32;;
74158;SDS011;62511;47.970;11.774;2022-12-07T00:33:58;11.95;;;5.30;;
74158;SDS011;62511;47.970;11.774;2022-12-07T00:36:24;7.78;;;2.97;;
74158;SDS011;62511;47.970;11.774;2022-12-07T00:38:50;10.88;;;4.70;;
74158;SDS011;62511;47.970;11.774;2022-12-07T00:41:17;12.00;;;4.97;;
74158;SDS011;62511;47.970;11.774;2022-12-07T00:43:44;14.43;;;5.80;;
74158;SDS011;62511;47.970;11.774;2022-12-07T00:46:11;12.95;;;4.95;;
74158;SDS011;62511;47.970;11.774;2022-12-07T00:48:37;14.48;;;5.55;;
74158;SDS011;62511;47.970;11.774;2022-12-07T00:51:04;11.10;;;5.13;;
74158;SDS011;62511;47.970;11.774;2022-12-07T00:53:30;13.45;;;5.47;;
74158;SDS011;62511;47.970;11.774;2022-12-07T00:55:58;13.93;;;5.28;;
74158;SDS011;62511;47.970;11.774;2022-12-07T00:58:24;11.70;;;5.10;;
74158;SDS011;62511;47.970;11.774;2022-12-07T01:00:51;11.93;;;5.25;;
74158;SDS011;62511;47.970;11.774;2022-12-07T01:03:18;10.88;;;4.65;;
74158;SDS011;62511;47.970;11.774;2022-12-07T01:05:51;12.68;;;5.10;;
74158;SDS011;62511;47.970;11.774;2022-12-07T01:08:17;10.48;;;4.43;;
74158;SDS011;62511;47.970;11.774;2022-12-07T01:10:43;12.70;;;5.40;;
74158;SDS011;62511;47.970;11.774;2022-12-07T01:13:09;12.43;;;5.47;;
74158;SDS011;62511;47.970;11.774;2022-12-07T01:15:38;15.07;;;5.68;;
74158;SDS011;62511;47.970;11.774;2022-12-07T01:18:04;12.05;;;5.40;;
74158;SDS011;62511;47.970;11.774;2022-12-07T01:20:31;12.80;;;4.85;;
74158;SDS011;62511;47.970;11.774;2022-12-07T01:22:58;13.07;;;5.03;;
74158;SDS011;62511;47.970;11.774;2022-12-07T01:25:24;11.25;;;4.90;;
74158;SDS011;62511;47.970;11.774;2022-12-07T01:27:50;14.05;;;6.30;;
74158;SDS011;62511;47.970;11.774;2022-12-07T01:30:16;12.63;;;5.70;;
74158;SDS011;62511;47.970;11.774;2022-12-07T01:32:42;11.38;;;5.68;;
74158;SDS011;62511;47.970;11.774;2022-12-07T01:35:08;11.50;;;4.75;;
74158;SDS011;62511;47.970;11.774;2022-12-07T01:37:38;13.80;;;5.55;;
74158;SDS011;62511;47.970;11.774;2022-12-07T01:40:06;14.90;;;5.07;;
74158;SDS011;62511;47.970;11.774;2022-12-07T01:42:33;12.23;;;4.53;;
74158;SDS011;62511;47.970;11.774;2022-12-07T01:47:57;11.18;;;5.07;;
74158;SDS011;62511;47.970;11.774;2022-12-07T01:50:24;12.02;;;5.55;;
74158;SDS011;62511;47.970;11.774;2022-12-07T01:52:55;16.02;;;5.38;;
74158;SDS011;62511;47.970;11.774;2022-12-07T01:55:22;13.18;;;4.88;;
74158;SDS011;62511;47.970;11.774;2022-12-07T01:57:50;13.80;;;5.43;;
74158;SDS011;62511;47.970;11.774;2022-12-07T02:00:17;11.52;;;5.38;;
74158;SDS011;62511;47.970;11.774;2022-12-07T02:02:45;11.60;;;5.13;;
74158;SDS011;62511;47.970;11.774;2022-12-07T02:05:13;14.32;;;5.10;;
74158;SDS011;62511;47.970;11.774;2022-12-07T02:07:39;11.73;;;4.75;;
74158;SDS011;62511;47.970;11.774;2022-12-07T02:10:13;12.05;;;4.75;;
74158;SDS011;62511;47.970;11.774;2022-12-07T02:12:39;11.65;;;5.30;;
74158;SDS011;62511;47.970;11.774;2022-12-07T02:15:05;10.93;;;5.20;;
74158;SDS011;62511;47.970;11.774;2022-12-07T02:17:34;12.38;;;5.25;;
74158;SDS011;62511;47.970;11.774;2022-12-07T02:20:16;13.43;;;5.32;;
74158;SDS011;62511;47.970;11.774;2022-12-07T02:25:55;12.60;;;5.30;;
74158;SDS011;62511;47.970;11.774;2022-12-07T02:28:26;16.17;;;5.50;;
74158;SDS011;62511;47.970;11.774;2022-12-07T02:30:54;11.25;;;5.15;;
74158;SDS011;62511;47.970;11.774;2022-12-07T02:33:26;10.50;;;4.95;;
74158;SDS011;62511;47.970;11.774;2022-12-07T02:36:04;10.10;;;4.88;;
74158;SDS011;62511;47.970;11.774;2022-12-07T02:38:54;14.50;;;5.75;;
74158;SDS011;62511;47.970;11.774;2022-12-07T02:41:25;11.40;;;5.18;;
74158;SDS011;62511;47.970;11.774;2022-12-07T02:43:54;12.85;;;4.47;;
74158;SDS011;62511;47.970;11.774;2022-12-07T02:46:32;9.00;;;4.70;;
74158;SDS011;62511;47.970;11.774;2022-12-07T02:48:59;9.57;;;3.75;;
74158;SDS011;62511;47.970;11.774;2022-12-07T02:51:25;11.40;;;4.53;;
74158;SDS011;62511;47.970;11.774;2022-12-07T02:53:51;11.27;;;5.18;;
74158;SDS011;62511;47.970;11.774;2022-12-07T02:56:25;13.65;;;5.03;;
74158;SDS011;62511;47.970;11.774;2022-12-07T03:04:41;11.30;;;4.68;;
74158;SDS011;62511;47.970;11.774;2022-12-07T03:06:44;13.55;;;5.30;;
74158;SDS011;62511;47.970;11.774;2022-12-07T03:11:50;12.73;;;4.50;;
74158;SDS011;62511;47.970;11.774;2022-12-07T03:14:23;12.60;;;4.45;;
74158;SDS011;62511;47.970;11.774;2022-12-07T03:16:52;12.00;;;4.95;;
74158;SDS011;62511;47.970;11.774;2022-12-07T03:19:20;10.77;;;4.50;;
74158;SDS011;62511;47.970;11.774;2022-12-07T03:21:47;10.77;;;4.45;;
74158;SDS011;62511;47.970;11.774;2022-12-07T03:24:15;11.30;;;4.45;;
74158;SDS011;62511;47.970;11.774;2022-12-07T03:26:44;6.57;;;3.65;;
74158;SDS011;62511;47.970;11.774;2022-12-07T03:29:17;10.30;;;4.72;;
74158;SDS011;62511;47.970;11.774;2022-12-07T03:31:47;12.35;;;4.93;;
74158;SDS011;62511;47.970;11.774;2022-12-07T03:36:50;11.65;;;4.65;;
74158;SDS011;62511;47.970;11.774;2022-12-07T03:39:22;10.50;;;4.70;;
74158;SDS011;62511;47.970;11.774;2022-12-07T03:41:50;12.40;;;5.30;;
74158;SDS011;62511;47.970;11.774;2022-12-07T03:44:17;11.88;;;5.85;;
74158;SDS011;62511;47.970;11.774;2022-12-07T03:46:59;13.43;;;5.13;;
74158;SDS011;62511;47.970;11.774;2022-12-07T03:54:30;11.90;;;5.03;;
74158;SDS011;62511;47.970;11.774;2022-12-07T03:56:58;12.77;;;5.47;;
74158;SDS011;62511;47.970;11.774;2022-12-07T03:59:24;10.98;;;5.05;;
74158;SDS011;62511;47.970;11.774;2022-12-07T04:01:52;12.13;;;5.03;;
74158;SDS011;62511;47.970;11.774;2022-12-07T04:04:18;13.07;;;5.05;;
74158;SDS011;62511;47.970;11.774;2022-12-07T04:06:44;14.52;;;5.57;;
74158;SDS011;62511;47.970;11.774;2022-12-07T04:09:10;11.30;;;4.70;;
74158;SDS011;62511;47.970;11.774;2022-12-07T04:11:36;12.75;;;5.03;;
74158;SDS011;62511;47.970;11.774;2022-12-07T04:14:02;11.57;;;5.55;;
74158;SDS011;62511;47.970;11.774;2022-12-07T04:16:47;10.50;;;4.50;;
74158;SDS011;62511;47.970;11.774;2022-12-07T04:19:14;11.02;;;4.35;;
74158;SDS011;62511;47.970;11.774;2022-12-07T04:21:40;12.18;;;4.82;;
74158;SDS011;62511;47.970;11.774;2022-12-07T04:24:06;11.85;;;4.93;;
74158;SDS011;62511;47.970;11.774;2022-12-07T04:26:32;13.18;;;5.20;;
74158;SDS011;62511;47.970;11.774;2022-12-07T04:28:58;12.05;;;4.85;;
74158;SDS011;62511;47.970;11.774;2022-12-07T04:31:24;9.80;;;4.93;;
74158;SDS011;62511;47.970;11.774;2022-12-07T04:33:50;12.48;;;5.07;;
74158;SDS011;62511;47.970;11.774;2022-12-07T04:36:16;11.43;;;4.65;;
74158;SDS011;62511;47.970;11.774;2022-12-07T04:41:10;9.38;;;4.25;;
74158;SDS011;62511;47.970;11.774;2022-12-07T04:43:36;8.93;;;3.95;;
74158;SDS011;62511;47.970;11.774;2022-12-07T04:46:02;11.27;;;4.47;;
74158;SDS011;62511;47.970;11.774;2022-12-07T04:48:28;11.20;;;4.32;;
74158;SDS011;62511;47.970;11.774;2022-12-07T04:50:54;10.75;;;4.70;;
74158;SDS011;62511;47.970;11.774;2022-12-07T04:53:20;10.70;;;4.40;;
74158;SDS011;62511;47.970;11.774;2022-12-07T04:55:46;12.35;;;5.28;;
74158;SDS011;62511;47.970;11.774;2022-12-07T04:58:13;10.20;;;4.80;;
74158;SDS011;62511;47.970;11.774;2022-12-07T05:00:40;9.43;;;4.40;;
74158;SDS011;62511;47.970;11.774;2022-12-07T05:03:07;9.02;;;4.53;;
74158;SDS011;62511;47.970;11.774;2022-12-07T05:05:33;10.02;;;4.13;;
74158;SDS011;62511;47.970;11.774;2022-12-07T05:07:59;10.13;;;4.47;;
74158;SDS011;62511;47.970;11.774;2022-12-07T05:10:25;12.05;;;5.28;;
74158;SDS011;62511;47.970;11.774;2022-12-07T05:12:51;10.02;;;4.93;;
74158;SDS011;62511;47.970;11.774;2022-12-07T05:15:17;12.38;;;4.55;;
74158;SDS011;62511;47.970;11.774;2022-12-07T05:17:44;11.95;;;4.30;;
74158;SDS011;62511;47.970;11.774;2022-12-07T05:20:11;12.60;;;4.25;;
74158;SDS011;62511;47.970;11.774;2022-12-07T05:22:37;10.40;;;4.32;;
74158;SDS011;62511;47.970;11.774;2022-12-07T05:25:03;12.00;;;5.05;;
74158;SDS011;62511;47.970;11.774;2022-12-07T05:27:29;9.50;;;4.28;;
74158;SDS011;62511;47.970;11.774;2022-12-07T05:29:55;11.27;;;5.07;;
74158;SDS011;62511;47.970;11.774;2022-12-07T05:32:21;11.13;;;4.75;;
74158;SDS011;62511;47.970;11.774;2022-12-07T05:34:47;12.98;;;4.93;;
74158;SDS011;62511;47.970;11.774;2022-12-07T05:37:13;8.85;;;4.65;;
74158;SDS011;62511;47.970;11.774;2022-12-07T05:39:41;11.68;;;4.40;;
74158;SDS011;62511;47.970;11.774;2022-12-07T05:44:43;12.60;;;5.05;;
74158;SDS011;62511;47.970;11.774;2022-12-07T05:47:13;13.23;;;5.35;;
74158;SDS011;62511;47.970;11.774;2022-12-07T05:49:40;7.22;;;3.35;;
74158;SDS011;62511;47.970;11.774;2022-12-07T05:52:06;13.70;;;5.32;;
74158;SDS011;62511;47.970;11.774;2022-12-07T05:54:32;12.68;;;5.35;;
74158;SDS011;62511;47.970;11.774;2022-12-07T05:56:58;1.92;;;1.58;;
74158;SDS011;62511;47.970;11.774;2022-12-07T05:59:24;9.65;;;3.47;;
74158;SDS011;62511;47.970;11.774;2022-12-07T06:04:19;4.72;;;2.92;;
74158;SDS011;62511;47.970;11.774;2022-12-07T06:06:45;10.02;;;4.32;;
74158;SDS011;62511;47.970;11.774;2022-12-07T06:09:12;16.60;;;6.18;;
74158;SDS011;62511;47.970;11.774;2022-12-07T06:11:39;1.42;;;1.02;;
74158;SDS011;62511;47.970;11.774;2022-12-07T06:14:24;11.63;;;5.07;;
74158;SDS011;62511;47.970;11.774;2022-12-07T06:16:51;6.13;;;2.80;;
74158;SDS011;62511;47.970;11.774;2022-12-07T06:19:17;12.20;;;4.25;;
74158;SDS011;62511;47.970;11.774;2022-12-07T06:21:43;8.50;;;4.18;;
74158;SDS011;62511;47.970;11.774;2022-12-07T06:24:10;12.20;;;4.47;;
74158;SDS011;62511;47.970;11.774;2022-12-07T06:26:37;8.25;;;3.72;;
74158;SDS011;62511;47.970;11.774;2022-12-07T06:29:03;9.85;;;4.28;;
74158;SDS011;62511;47.970;11.774;2022-12-07T06:31:29;11.95;;;5.47;;
74158;SDS011;62511;47.970;11.774;2022-12-07T06:33:58;6.13;;;3.40;;
74158;SDS011;62511;47.970;11.774;2022-12-07T06:36:24;7.20;;;2.78;;
74158;SDS011;62511;47.970;11.774;2022-12-07T06:38:50;11.32;;;3.78;;
74158;SDS011;62511;47.970;11.774;2022-12-07T06:41:16;10.52;;;5.18;;
74158;SDS011;62511;47.970;11.774;2022-12-07T06:43:43;15.25;;;6.05;;
74158;SDS011;62511;47.970;11.774;2022-12-07T06:46:09;18.63;;;6.55;;
74158;SDS011;62511;47.970;11.774;2022-12-07T06:48:35;10.65;;;4.50;;
74158;SDS011;62511;47.970;11.774;2022-12-07T06:51:01;10.82;;;4.47;;
74158;SDS011;62511;47.970;11.774;2022-12-07T06:53:27;12.20;;;4.53;;
74158;SDS011;62511;47.970;11.774;2022-12-07T06:55:53;8.43;;;3.38;;
74158;SDS011;62511;47.970;11.774;2022-12-07T06:58:19;12.52;;;4.43;;
74158;SDS011;62511;47.970;11.774;2022-12-07T07:00:47;11.10;;;5.18;;
74158;SDS011;62511;47.970;11.774;2022-12-07T07:03:16;11.13;;;4.47;;
74158;SDS011;62511;47.970;11.774;2022-12-07T07:05:42;10.65;;;5.30;;
74158;SDS011;62511;47.970;11.774;2022-12-07T07:08:08;8.50;;;4.28;;
74158;SDS011;62511;47.970;11.774;2022-12-07T07:10:36;10.05;;;4.53;;
74158;SDS011;62511;47.970;11.774;2022-12-07T07:13:02;13.23;;;5.20;;
74158;SDS011;62511;47.970;11.774;2022-12-07T07:15:28;11.43;;;4.63;;
74158;SDS011;62511;47.970;11.774;2022-12-07T07:17:54;10.77;;;5.10;;
74158;SDS011;62511;47.970;11.774;2022-12-07T07:20:20;10.10;;;4.68;;
74158;SDS011;62511;47.970;11.774;2022-12-07T07:22:47;10.25;;;4.38;;
74158;SDS011;62511;47.970;11.774;2022-12-07T07:25:13;9.57;;;4.07;;
74158;SDS011;62511;47.970;11.774;2022-12-07T07:27:39;9.00;;;4.68;;
74158;SDS011;62511;47.970;11.774;2022-12-07T07:30:05;10.13;;;4.53;;
74158;SDS011;62511;47.970;11.774;2022-12-07T07:32:32;11.18;;;4.50;;
74158;SDS011;62511;47.970;11.774;2022-12-07T07:34:58;10.18;;;4.80;;
74158;SDS011;62511;47.970;11.774;2022-12-07T07:37:25;11.85;;;4.60;;
74158;SDS011;62511;47.970;11.774;2022-12-07T07:39:51;20.80;;;6.78;;
74158;SDS011;62511;47.970;11.774;2022-12-07T07:42:17;12.95;;;5.05;;
74158;SDS011;62511;47.970;11.774;2022-12-07T07:44:43;16.50;;;5.88;;
74158;SDS011;62511;47.970;11.774;2022-12-07T07:47:09;19.65;;;7.05;;
74158;SDS011;62511;47.970;11.774;2022-12-07T07:49:35;14.38;;;4.38;;
74158;SDS011;62511;47.970;11.774;2022-12-07T07:52:01;12.75;;;3.83;;
74158;SDS011;62511;47.970;11.774;2022-12-07T07:54:27;11.30;;;5.28;;
74158;SDS011;62511;47.970;11.774;2022-12-07T07:56:53;9.93;;;4.40;;
74158;SDS011;62511;47.970;11.774;2022-12-07T07:59:20;11.90;;;4.80;;
74158;SDS011;62511;47.970;11.774;2022-12-07T08:01:46;15.05;;;5.63;;
74158;SDS011;62511;47.970;11.774;2022-12-07T08:04:12;12.50;;;5.22;;
74158;SDS011;62511;47.970;11.774;2022-12-07T08:06:38;11.95;;;5.10;;
74158;SDS011;62511;47.970;11.774;2022-12-07T08:09:06;13.02;;;4.40;;
74158;SDS011;62511;47.970;11.774;2022-12-07T08:11:33;11.32;;;4.75;;
74158;SDS011;62511;47.970;11.774;2022-12-07T08:13:59;13.95;;;4.80;;
74158;SDS011;62511;47.970;11.774;2022-12-07T08:16:25;12.48;;;4.88;;
74158;SDS011;62511;47.970;11.774;2022-12-07T08:18:51;9.10;;;3.85;;
74158;SDS011;62511;47.970;11.774;2022-12-07T08:21:17;7.50;;;3.80;;
74158;SDS011;62511;47.970;11.774;2022-12-07T08:23:43;8.73;;;3.90;;
74158;SDS011;62511;47.970;11.774;2022-12-07T08:26:10;9.93;;;4.25;;
74158;SDS011;62511;47.970;11.774;2022-12-07T08:31:03;13.10;;;3.78;;
74158;SDS011;62511;47.970;11.774;2022-12-07T08:33:29;13.40;;;4.00;;
74158;SDS011;62511;47.970;11.774;2022-12-07T08:36:00;8.77;;;4.10;;
74158;SDS011;62511;47.970;11.774;2022-12-07T08:38:26;9.10;;;4.18;;
74158;SDS011;62511;47.970;11.774;2022-12-07T08:40:58;10.35;;;4.50;;
74158;SDS011;62511;47.970;11.774;2022-12-07T08:43:24;9.98;;;4.35;;
74158;SDS011;62511;47.970;11.774;2022-12-07T08:48:25;10.77;;;4.05;;
74158;SDS011;62511;47.970;11.774;2022-12-07T08:50:52;8.95;;;3.72;;
74158;SDS011;62511;47.970;11.774;2022-12-07T08:53:18;9.98;;;4.03;;
74158;SDS011;62511;47.970;11.774;2022-12-07T08:55:45;10.75;;;4.25;;
74158;SDS011;62511;47.970;11.774;2022-12-07T08:58:11;11.25;;;4.47;;
74158;SDS011;62511;47.970;11.774;2022-12-07T09:00:37;6.90;;;3.30;;
74158;SDS011;62511;47.970;11.774;2022-12-07T09:03:03;8.60;;;4.20;;
74158;SDS011;62511;47.970;11.774;2022-12-07T09:05:29;10.57;;;4.28;;
74158;SDS011;62511;47.970;11.774;2022-12-07T09:07:56;7.65;;;4.00;;
74158;SDS011;62511;47.970;11.774;2022-12-07T09:10:23;9.57;;;4.82;;
74158;SDS011;62511;47.970;11.774;2022-12-07T09:12:49;12.27;;;5.13;;
74158;SDS011;62511;47.970;11.774;2022-12-07T09:15:15;11.45;;;4.90;;
74158;SDS011;62511;47.970;11.774;2022-12-07T09:17:41;9.45;;;4.25;;
74158;SDS011;62511;47.970;11.774;2022-12-07T09:20:07;9.15;;;3.90;;
74158;SDS011;62511;47.970;11.774;2022-12-07T09:22:33;10.27;;;4.85;;
74158;SDS011;62511;47.970;11.774;2022-12-07T09:25:00;10.13;;;4.80;;
74158;SDS011;62511;47.970;11.774;2022-12-07T09:27:26;8.35;;;4.30;;
74158;SDS011;62511;47.970;11.774;2022-12-07T09:29:52;9.68;;;4.35;;
74158;SDS011;62511;47.970;11.774;2022-12-07T09:32:19;9.25;;;4.90;;
74158;SDS011;62511;47.970;11.774;2022-12-07T09:34:45;9.02;;;4.10;;
74158;SDS011;62511;47.970;11.774;2022-12-07T09:37:11;10.77;;;4.43;;
74158;SDS011;62511;47.970;11.774;2022-12-07T09:39:37;10.50;;;5.25;;
74158;SDS011;62511;47.970;11.774;2022-12-07T09:42:03;7.65;;;3.38;;
74158;SDS011;62511;47.970;11.774;2022-12-07T09:44:31;12.35;;;4.88;;
74158;SDS011;62511;47.970;11.774;2022-12-07T09:46:57;13.15;;;4.57;;
74158;SDS011;62511;47.970;11.774;2022-12-07T09:49:25;11.55;;;4.70;;
74158;SDS011;62511;47.970;11.774;2022-12-07T09:54:50;11.13;;;4.75;;
74158;SDS011;62511;47.970;11.774;2022-12-07T09:57:19;8.38;;;4.10;;
74158;SDS011;62511;47.970;11.774;2022-12-07T09:59:49;10.55;;;4.38;;
74158;SDS011;62511;47.970;11.774;2022-12-07T10:04:51;10.68;;;4.45;;
74158;SDS011;62511;47.970;11.774;2022-12-07T10:07:17;9.65;;;4.15;;
74158;SDS011;62511;47.970;11.774;2022-12-07T10:09:44;10.80;;;4.80;;
74158;SDS011;62511;47.970;11.774;2022-12-07T10:12:11;9.68;;;4.13;;
74158;SDS011;62511;47.970;11.774;2022-12-07T10:14:39;9.18;;;4.03;;
74158;SDS011;62511;47.970;11.774;2022-12-07T10:17:25;7.10;;;3.63;;
74158;SDS011;62511;47.970;11.774;2022-12-07T10:20:07;10.75;;;4.30;;
74158;SDS011;62511;47.970;11.774;2022-12-07T10:22:34;8.00;;;3.38;;
74158;SDS011;62511;47.970;11.774;2022-12-07T10:25:07;7.55;;;3.70;;
74158;SDS011;62511;47.970;11.774;2022-12-07T10:27:35;6.97;;;4.00;;
74158;SDS011;62511;47.970;11.774;2022-12-07T10:30:01;22.42;;;9.30;;
74158;SDS011;62511;47.970;11.774;2022-12-07T10:32:33;11.50;;;4.85;;
74158;SDS011;62511;47.970;11.774;2022-12-07T10:37:56;15.90;;;8.52;;
74158;SDS011;62511;47.970;11.774;2022-12-07T10:43:00;35.20;;;13.63;;
74158;SDS011;62511;47.970;11.774;2022-12-07T10:45:26;5.15;;;2.75;;
74158;SDS011;62511;47.970;11.774;2022-12-07T10:48:02;16.58;;;8.00;;
74158;SDS011;62511;47.970;11.774;2022-12-07T10:56:06;7.25;;;3.83;;
74158;SDS011;62511;47.970;11.774;2022-12-07T11:03:44;8.95;;;4.15;;
74158;SDS011;62511;47.970;11.774;2022-12-07T11:19:19;6.90;;;3.58;;
74158;SDS011;62511;47.970;11.774;2022-12-07T11:21:56;8.82;;;4.20;;
74158;SDS011;62511;47.970;11.774;2022-12-07T11:26:58;7.05;;;4.18;;
74158;SDS011;62511;47.970;11.774;2022-12-07T11:36:49;9.05;;;3.85;;
74158;SDS011;62511;47.970;11.774;2022-12-07T11:41:51;8.23;;;4.03;;
74158;SDS011;62511;47.970;11.774;2022-12-07T11:46:49;8.80;;;4.35;;
74158;SDS011;62511;47.970;11.774;2022-12-07T11:52:01;9.38;;;4.00;;
74158;SDS011;62511;47.970;11.774;2022-12-07T11:54:29;9.35;;;4.07;;
74158;SDS011;62511;47.970;11.774;2022-12-07T11:56:59;9.13;;;4.05;;
74158;SDS011;62511;47.970;11.774;2022-12-07T11:59:38;4.80;;;2.88;;
74158;SDS011;62511;47.970;11.774;2022-12-07T12:02:25;9.48;;;3.95;;
74158;SDS011;62511;47.970;11.774;2022-12-07T12:07:23;10.02;;;4.68;;
74158;SDS011;62511;47.970;11.774;2022-12-07T12:22:48;8.48;;;3.85;;
74158;SDS011;62511;47.970;11.774;2022-12-07T12:25:49;8.30;;;3.67;;
74158;SDS011;62511;47.970;11.774;2022-12-07T12:28:56;7.03;;;3.45;;
74158;SDS011;62511;47.970;11.774;2022-12-07T12:33:43;7.18;;;3.58;;
74158;SDS011;62511;47.970;11.774;2022-12-07T12:43:59;6.97;;;3.08;;
74158;SDS011;62511;47.970;11.774;2022-12-07T12:59:26;5.30;;;2.95;;
74158;SDS011;62511;47.970;11.774;2022-12-07T13:01:54;4.85;;;2.72;;
74158;SDS011;62511;47.970;11.774;2022-12-07T13:06:46;6.38;;;3.10;;
74158;SDS011;62511;47.970;11.774;2022-12-07T13:09:26;6.53;;;2.95;;
74158;SDS011;62511;47.970;11.774;2022-12-07T13:11:56;4.82;;;2.30;;
74158;SDS011;62511;47.970;11.774;2022-12-07T13:17:11;8.38;;;3.55;;
74158;SDS011;62511;47.970;11.774;2022-12-07T13:27:33;5.38;;;2.78;;
74158;SDS011;62511;47.970;11.774;2022-12-07T13:30:00;6.53;;;3.42;;
74158;SDS011;62511;47.970;11.774;2022-12-07T13:32:27;8.07;;;4.07;;
74158;SDS011;62511;47.970;11.774;2022-12-07T13:34:54;6.50;;;3.63;;
74158;SDS011;62511;47.970;11.774;2022-12-07T13:39:50;7.80;;;3.40;;
74158;SDS011;62511;47.970;11.774;2022-12-07T13:42:29;7.75;;;3.92;;
74158;SDS011;62511;47.970;11.774;2022-12-07T13:44:56;7.95;;;3.58;;
74158;SDS011;62511;47.970;11.774;2022-12-07T13:47:26;6.22;;;3.17;;
74158;SDS011;62511;47.970;11.774;2022-12-07T13:52:23;8.10;;;3.45;;
74158;SDS011;62511;47.970;11.774;2022-12-07T13:55:00;6.53;;;3.22;;
74158;SDS011;62511;47.970;11.774;2022-12-07T13:57:28;7.68;;;3.75;;
74158;SDS011;62511;47.970;11.774;2022-12-07T13:59:55;6.25;;;3.08;;
74158;SDS011;62511;47.970;11.774;2022-12-07T14:02:28;6.78;;;3.25;;
74158;SDS011;62511;47.970;11.774;2022-12-07T14:05:13;5.60;;;2.70;;
74158;SDS011;62511;47.970;11.774;2022-12-07T14:07:53;12.35;;;3.65;;
74158;SDS011;62511;47.970;11.774;2022-12-07T14:10:26;7.03;;;3.85;;
74158;SDS011;62511;47.970;11.774;2022-12-07T14:12:52;10.50;;;4.07;;
74158;SDS011;62511;47.970;11.774;2022-12-07T14:15:20;7.53;;;3.30;;
74158;SDS011;62511;47.970;11.774;2022-12-07T14:17:53;8.07;;;4.07;;
74158;SDS011;62511;47.970;11.774;2022-12-07T14:22:58;7.47;;;3.85;;
74158;SDS011;62511;47.970;11.774;2022-12-07T14:25:25;7.68;;;3.47;;
74158;SDS011;62511;47.970;11.774;2022-12-07T14:30:20;7.03;;;3.35;;
74158;SDS011;62511;47.970;11.774;2022-12-07T14:32:47;8.02;;;3.58;;
74158;SDS011;62511;47.970;11.774;2022-12-07T14:35:16;8.25;;;3.92;;
74158;SDS011;62511;47.970;11.774;2022-12-07T14:37:45;9.25;;;4.40;;
74158;SDS011;62511;47.970;11.774;2022-12-07T14:40:19;8.70;;;3.53;;
74158;SDS011;62511;47.970;11.774;2022-12-07T14:42:46;10.27;;;4.18;;
74158;SDS011;62511;47.970;11.774;2022-12-07T14:45:13;11.65;;;4.53;;
74158;SDS011;62511;47.970;11.774;2022-12-07T14:47:40;10.98;;;4.88;;
74158;SDS011;62511;47.970;11.774;2022-12-07T14:50:07;10.52;;;4.28;;
74158;SDS011;62511;47.970;11.774;2022-12-07T14:52:34;8.45;;;4.22;;
74158;SDS011;62511;47.970;11.774;2022-12-07T14:55:00;8.27;;;4.07;;
74158;SDS011;62511;47.970;11.774;2022-12-07T14:57:26;9.63;;;4.30;;
74158;SDS011;62511;47.970;11.774;2022-12-07T14:59:52;11.15;;;4.63;;
74158;SDS011;62511;47.970;11.774;2022-12-07T15:02:18;11.25;;;5.10;;
74158;SDS011;62511;47.970;11.774;2022-12-07T15:04:44;10.88;;;4.65;;
74158;SDS011;62511;47.970;11.774;2022-12-07T15:07:13;7.82;;;3.55;;
74158;SDS011;62511;47.970;11.774;2022-12-07T15:09:40;10.73;;;4.40;;
74158;SDS011;62511;47.970;11.774;2022-12-07T15:12:06;8.88;;;4.32;;
74158;SDS011;62511;47.970;11.774;2022-12-07T15:14:32;7.70;;;4.38;;
74158;SDS011;62511;47.970;11.774;2022-12-07T15:16:58;8.45;;;4.15;;
74158;SDS011;62511;47.970;11.774;2022-12-07T15:19:24;8.30;;;4.13;;
74158;SDS011;62511;47.970;11.774;2022-12-07T15:21:52;12.40;;;4.65;;
74158;SDS011;62511;47.970;11.774;2022-12-07T15:24:18;8.55;;;4.32;;
74158;SDS011;62511;47.970;11.774;2022-12-07T15:26:44;11.00;;;4.78;;
74158;SDS011;62511;47.970;11.774;2022-12-07T15:29:10;8.32;;;3.97;;
74158;SDS011;62511;47.970;11.774;2022-12-07T15:31:36;9.35;;;3.92;;
74158;SDS011;62511;47.970;11.774;2022-12-07T15:34:03;9.93;;;4.32;;
74158;SDS011;62511;47.970;11.774;2022-12-07T15:36:31;8.32;;;4.00;;
74158;SDS011;62511;47.970;11.774;2022-12-07T15:41:23;7.20;;;3.42;;
74158;SDS011;62511;47.970;11.774;2022-12-07T15:43:49;9.02;;;4.30;;
74158;SDS011;62511;47.970;11.774;2022-12-07T15:46:35;13.50;;;6.10;;
74158;SDS011;62511;47.970;11.774;2022-12-07T15:49:02;13.90;;;5.78;;
74158;SDS011;62511;47.970;11.774;2022-12-07T15:51:28;11.88;;;6.40;;
74158;SDS011;62511;47.970;11.774;2022-12-07T15:53:54;15.05;;;6.90;;
74158;SDS011;62511;47.970;11.774;2022-12-07T15:56:21;72.38;;;17.98;;
74158;SDS011;62511;47.970;11.774;2022-12-07T15:58:47;19.88;;;8.85;;
74158;SDS011;62511;47.970;11.774;2022-12-07T16:01:16;16.70;;;7.35;;
74158;SDS011;62511;47.970;11.774;2022-12-07T16:03:42;13.13;;;6.45;;
74158;SDS011;62511;47.970;11.774;2022-12-07T16:06:08;11.80;;;5.20;;
74158;SDS011;62511;47.970;11.774;2022-12-07T16:08:35;10.57;;;5.07;;
74158;SDS011;62511;47.970;11.774;2022-12-07T16:11:05;15.32;;;6.55;;
74158;SDS011;62511;47.970;11.774;2022-12-07T16:13:31;13.88;;;6.28;;
74158;SDS011;62511;47.970;11.774;2022-12-07T16:15:57;29.63;;;9.95;;
74158;SDS011;62511;47.970;11.774;2022-12-07T16:18:23;28.38;;;8.55;;
74158;SDS011;62511;47.970;11.774;2022-12-07T16:20:50;30.05;;;10.50;;
74158;SDS011;62511;47.970;11.774;2022-12-07T16:23:16;20.92;;;8.80;;
74158;SDS011;62511;47.970;11.774;2022-12-07T16:25:42;23.60;;;10.63;;
74158;SDS011;62511;47.970;11.774;2022-12-07T16:28:08;50.40;;;16.63;;
74158;SDS011;62511;47.970;11.774;2022-12-07T16:30:34;29.00;;;12.35;;
74158;SDS011;62511;47.970;11.774;2022-12-07T16:33:00;29.67;;;10.80;;
74158;SDS011;62511;47.970;11.774;2022-12-07T16:35:26;24.42;;;9.63;;
74158;SDS011;62511;47.970;11.774;2022-12-07T16:37:52;23.95;;;8.25;;
74158;SDS011;62511;47.970;11.774;2022-12-07T16:40:19;12.23;;;5.88;;
74158;SDS011;62511;47.970;11.774;2022-12-07T16:42:48;15.00;;;6.20;;
74158;SDS011;62511;47.970;11.774;2022-12-07T16:45:14;9.98;;;5.25;;
74158;SDS011;62511;47.970;11.774;2022-12-07T16:47:41;12.27;;;4.68;;
74158;SDS011;62511;47.970;11.774;2022-12-07T16:50:08;12.50;;;5.07;;
74158;SDS011;62511;47.970;11.774;2022-12-07T16:52:34;13.70;;;6.20;;
74158;SDS011;62511;47.970;11.774;2022-12-07T16:55:00;22.63;;;10.25;;
74158;SDS011;62511;47.970;11.774;2022-12-07T16:57:26;24.92;;;11.60;;
74158;SDS011;62511;47.970;11.774;2022-12-07T16:59:53;17.00;;;7.38;;
74158;SDS011;62511;47.970;11.774;2022-12-07T17:02:19;19.48;;;7.97;;